KATL

Atlanta/Hartsfield-Jackson International

Airport
ICAO code
KATL
IATA Code
ATL
Summary
ICAO Region
NAM
ICAO Territory
Location

Atlanta, Georgia

Serving
Atlanta
Elevation
1026 ft
Coordinates
33° 38' 25" N , 84° 25' 38" W
KCC
Cfa
Airport LOS
Parallel Runway Operation
Metar
Observation
KATL 171352Z 08007KT 4SM -RA BR BKN007 OVC012 22/20 A3002 RMK AO2 DZB14E49RAB49 SLP157 VIS LWR NE-E CIG 005V009 P0000 T02170200
Station
Atlanta, Hartsfield - Jackson Atlanta International Airport
Date/Time
2022-08-17 13:52:00
Wind direction
80°
Wind speed
07 kts
Lowest cloud amount
broken clouds
Temperature
21.7°C
Dew point
20°C
Humidity
90%
Weather condition
light

Description

International airport serving Atlanta, Georgia.

Climatology

Humid “subtropical” climate (Köppen climate classification Cfa) - characterized by hot, humid summers and cool winters. Significant amounts of precipitation occur in all seasons in most areas. Winter rainfall (and sometimes snowfall) is associated with large storms that the westerlies steer from west to east. Most summer rainfall occurs during thunderstorms and occasional tropical storms (hurricanes).

SKYbrary Partners:

Safety knowledge contributed by: